Time;durP1;ratioP1;P1;durP2;ratioP2;P2;SDS_P1;SDS_P2;PMS_P1;PMS_P2;Temp;Humidity;BMP_temperature;BMP_pressure;BME280_temperature;BME280_humidity;BME280_pressure;Samples;Min_cycle;Max_cycle;Signal;HPM_P1;HPM_P2
2021/07/28 00:00:50;;;;;;;15.90;10.80;;;17.50;99.90;;;;;;5001447;28;20045;-83
2021/07/28 00:03:15;;;;;;;12.55;9.82;;;17.50;99.90;;;;;;5010403;28;20030;-83
2021/07/28 00:05:41;;;;;;;14.90;9.75;;;17.50;99.90;;;;;;4995996;28;20427;-83
2021/07/28 00:08:07;;;;;;;12.27;9.93;;;17.50;99.90;;;;;;4981271;28;20034;-83
2021/07/28 00:10:33;;;;;;;14.52;11.00;;;17.50;99.90;;;;;;4981927;28;20031;-83
2021/07/28 00:12:59;;;;;;;14.07;10.23;;;17.40;99.90;;;;;;4995116;28;20081;-83
2021/07/28 00:15:24;;;;;;;13.88;10.50;;;17.40;99.90;;;;;;5011393;28;20018;-83
2021/07/28 00:17:53;;;;;;;14.93;10.23;;;17.40;99.90;;;;;;4997841;28;20530;-83
2021/07/28 00:23:13;;;;;;;14.20;10.48;;;17.30;99.90;;;;;;4982190;28;20017;-83
2021/07/28 00:23:17;;;;;;;13.98;11.10;;;17.30;99.90;;;;;;5002459;28;20033;-83
2021/07/28 00:25:44;;;;;;;14.63;10.85;;;17.30;99.90;;;;;;4995740;28;20471;-83
2021/07/28 00:28:11;;;;;;;14.40;11.07;;;17.30;99.90;;;;;;4997884;28;20026;-83
2021/07/28 00:30:39;;;;;;;15.77;11.27;;;17.30;99.90;;;;;;4981688;28;20396;-83
2021/07/28 00:33:05;;;;;;;15.88;11.13;;;17.30;99.90;;;;;;4994197;28;20029;-83
2021/07/28 00:35:31;;;;;;;14.57;11.40;;;17.30;99.90;;;;;;4993393;28;20053;-83
2021/07/28 00:38:05;;;;;;;15.05;11.80;;;17.30;99.90;;;;;;4999165;28;20029;-82
2021/07/28 00:40:31;;;;;;;14.68;11.38;;;17.30;99.90;;;;;;5003811;28;20049;-82
2021/07/28 00:43:14;;;;;;;14.77;10.98;;;17.30;99.90;;;;;;4989702;28;20036;-82
2021/07/28 00:45:44;;;;;;;13.52;10.90;;;17.30;99.90;;;;;;5006625;28;20555;-82
2021/07/28 00:48:10;;;;;;;15.32;11.30;;;17.30;99.90;;;;;;5009467;28;20094;-83
2021/07/28 00:50:39;;;;;;;15.50;10.80;;;17.30;99.90;;;;;;4977864;28;20035;-82
2021/07/28 00:53:07;;;;;;;13.50;11.50;;;17.20;99.90;;;;;;4993914;28;20037;-83
2021/07/28 00:55:32;;;;;;;14.43;10.35;;;17.20;99.90;;;;;;5013700;28;20056;-83
2021/07/28 00:58:01;;;;;;;14.95;11.27;;;17.20;99.90;;;;;;4962422;28;20023;-83
2021/07/28 01:00:30;;;;;;;15.55;11.57;;;17.20;99.90;;;;;;4997152;28;20037;-83
2021/07/28 01:02:56;;;;;;;15.00;11.30;;;17.20;99.90;;;;;;4997026;28;20045;-83
2021/07/28 01:05:21;;;;;;;14.95;11.27;;;17.20;99.90;;;;;;4980785;28;20026;-83
2021/07/28 01:07:47;;;;;;;14.43;11.35;;;17.20;99.90;;;;;;4988737;28;20364;-83
2021/07/28 01:10:13;;;;;;;14.55;11.15;;;17.20;99.90;;;;;;4996793;28;20037;-83
2021/07/28 01:12:44;;;;;;;12.88;10.90;;;17.20;99.90;;;;;;4967777;28;20031;-83
2021/07/28 01:15:10;;;;;;;;;;;17.20;99.90;;;;;;4979526;28;20384;-83
2021/07/28 01:17:36;;;;;;;16.75;11.30;;;17.20;99.90;;;;;;4978634;28;19913;-83
2021/07/28 01:20:06;;;;;;;12.75;10.02;;;17.20;99.90;;;;;;4983842;28;20033;-83
2021/07/28 01:22:33;;;;;;;14.00;11.00;;;17.20;99.90;;;;;;4996658;28;20030;-83
2021/07/28 01:24:59;;;;;;;14.93;11.25;;;17.20;99.90;;;;;;4980441;28;20384;-83
2021/07/28 01:27:25;;;;;;;13.63;10.93;;;17.20;99.90;;;;;;4996440;28;20026;-83
2021/07/28 01:29:51;;;;;;;13.57;11.02;;;17.10;99.90;;;;;;4964347;28;20025;-83
2021/07/28 01:32:16;;;;;;;15.15;11.45;;;17.10;99.90;;;;;;4979991;28;20029;-83
2021/07/28 01:34:43;;;;;;;14.43;11.43;;;17.10;99.90;;;;;;4980277;28;20050;-84
2021/07/28 01:37:12;;;;;;;16.65;11.85;;;17.10;99.90;;;;;;4976796;28;20026;-84
2021/07/28 01:39:38;;;;;;;14.50;10.55;;;17.10;99.90;;;;;;5006597;28;20022;-84
2021/07/28 01:42:04;;;;;;;16.00;12.13;;;17.10;99.90;;;;;;4974797;28;20089;-83
2021/07/28 01:44:32;;;;;;;14.32;11.18;;;17.00;99.90;;;;;;4984734;28;20031;-83
2021/07/28 01:46:58;;;;;;;14.63;11.13;;;17.00;99.90;;;;;;4994024;28;20017;-83
2021/07/28 01:49:24;;;;;;;15.30;12.20;;;17.00;99.90;;;;;;4996166;28;20495;-84
2021/07/28 01:51:49;;;;;;;16.48;11.60;;;17.00;99.90;;;;;;4966653;28;20547;-85
2021/07/28 01:54:15;;;;;;;13.63;10.82;;;17.00;99.90;;;;;;4996534;28;20045;-85
2021/07/28 01:56:42;;;;;;;13.38;10.25;;;17.00;99.90;;;;;;4996633;28;20022;-86
2021/07/28 01:59:12;;;;;;;16.85;11.13;;;17.00;99.90;;;;;;4983252;28;20493;-85
2021/07/28 02:01:38;;;;;;;14.90;11.57;;;17.00;99.90;;;;;;4983125;28;20538;-85
2021/07/28 02:04:04;;;;;;;15.25;10.65;;;16.90;99.90;;;;;;4976963;28;20535;-85
2021/07/28 02:06:31;;;;;;;13.68;10.80;;;16.90;99.90;;;;;;4992976;28;20105;-86
2021/07/28 02:09:00;;;;;;;15.07;10.77;;;16.90;99.90;;;;;;5001313;28;20022;-86
2021/07/28 02:11:25;;;;;;;15.18;10.38;;;16.90;99.90;;;;;;4970958;28;20567;-85
2021/07/28 02:13:51;;;;;;;15.65;11.00;;;16.90;99.90;;;;;;4985302;28;20060;-85
2021/07/28 02:16:17;;;;;;;14.50;10.73;;;16.90;99.90;;;;;;5000917;28;20026;-85
2021/07/28 02:18:42;;;;;;;17.58;10.95;;;16.90;99.90;;;;;;4996434;28;20387;-85
2021/07/28 02:21:08;;;;;;;15.13;11.05;;;16.90;99.90;;;;;;4972106;28;20134;-85
2021/07/28 02:23:34;;;;;;;15.35;10.80;;;16.90;99.90;;;;;;4979610;28;20065;-85
2021/07/28 02:25:59;;;;;;;15.30;10.10;;;16.90;99.90;;;;;;5012120;28;20022;-85
2021/07/28 02:28:25;;;;;;;13.38;9.82;;;16.90;99.90;;;;;;4976975;28;20045;-85
2021/07/28 02:30:51;;;;;;;17.92;11.07;;;16.90;99.90;;;;;;5013325;28;20092;-85
2021/07/28 02:33:16;;;;;;;14.70;9.85;;;16.80;99.90;;;;;;4992199;28;20119;-85
2021/07/28 02:35:42;;;;;;;13.40;10.27;;;16.80;99.90;;;;;;4992189;28;20030;-86
2021/07/28 02:38:08;;;;;;;15.68;11.05;;;16.80;99.90;;;;;;4983842;28;20125;-85
2021/07/28 02:40:33;;;;;;;14.40;10.48;;;16.80;99.90;;;;;;4962885;28;20026;-85
2021/07/28 02:42:59;;;;;;;14.18;10.40;;;16.80;99.90;;;;;;5011978;28;20022;-85
2021/07/28 02:45:25;;;;;;;11.93;9.90;;;16.80;99.90;;;;;;4979277;28;20034;-84
2021/07/28 02:47:50;;;;;;;14.77;10.23;;;16.80;99.90;;;;;;4979169;28;20026;-86
2021/07/28 02:50:16;;;;;;;15.90;11.02;;;16.70;99.90;;;;;;4992135;28;20034;-85
2021/07/28 02:52:42;;;;;;;15.30;10.63;;;16.70;99.90;;;;;;4994454;28;20045;-85
2021/07/28 02:55:08;;;;;;;17.27;10.85;;;16.70;99.90;;;;;;5008196;28;20026;-85
2021/07/28 02:57:35;;;;;;;15.05;11.10;;;16.70;99.90;;;;;;4995018;28;20533;-85
2021/07/28 03:00:01;;;;;;;14.63;10.85;;;16.70;99.90;;;;;;4984939;28;20026;-82
2021/07/28 03:02:27;;;;;;;16.75;11.52;;;16.70;99.90;;;;;;4990521;28;20036;-82
2021/07/28 03:04:53;;;;;;;15.85;11.07;;;16.70;99.90;;;;;;4985902;28;20026;-82
2021/07/28 03:07:19;;;;;;;14.80;10.70;;;16.70;99.90;;;;;;4990053;28;20044;-83
2021/07/28 03:09:44;;;;;;;15.23;10.57;;;16.70;99.90;;;;;;4978884;28;20037;-82
2021/07/28 03:12:10;;;;;;;13.30;10.43;;;16.70;99.90;;;;;;4975431;28;20030;-82
2021/07/28 03:14:35;;;;;;;15.68;10.98;;;16.70;99.90;;;;;;5000131;28;20023;-83
2021/07/28 03:17:01;;;;;;;17.88;11.27;;;16.70;99.90;;;;;;5011030;28;20034;-83
2021/07/28 03:19:42;;;;;;;16.85;11.77;;;16.70;99.90;;;;;;4978891;28;20775;-82
2021/07/28 03:22:07;;;;;;;;;;;16.70;99.90;;;;;;4977833;28;20073;-83
2021/07/28 03:24:33;;;;;;;15.27;11.68;;;16.70;99.90;;;;;;4994820;28;19913;-82
2021/07/28 03:26:59;;;;;;;18.73;13.40;;;16.70;99.90;;;;;;4994759;28;20026;-82
2021/07/28 03:29:24;;;;;;;16.27;12.95;;;16.60;99.90;;;;;;4994861;28;20053;-82
2021/07/28 03:31:50;;;;;;;16.52;12.02;;;16.60;99.90;;;;;;4978419;28;20037;-82
2021/07/28 03:34:16;;;;;;;15.73;12.07;;;16.60;99.90;;;;;;4962679;28;20026;-82
2021/07/28 03:36:42;;;;;;;15.73;12.05;;;16.60;99.90;;;;;;5011034;28;20026;-82
2021/07/28 03:39:07;;;;;;;19.10;13.70;;;16.60;99.90;;;;;;4978488;28;20026;-82
2021/07/28 03:41:34;;;;;;;17.38;11.80;;;16.70;99.90;;;;;;4997992;28;20030;-83
2021/07/28 03:44:03;;;;;;;16.55;11.90;;;16.60;99.90;;;;;;4998822;28;20464;-82
2021/07/28 03:46:29;;;;;;;17.63;13.02;;;16.60;99.90;;;;;;4975658;28;20473;-82
2021/07/28 03:48:54;;;;;;;16.15;11.55;;;16.60;99.90;;;;;;4967527;28;20032;-82
2021/07/28 03:51:20;;;;;;;19.33;12.07;;;16.60;99.90;;;;;;4966819;28;20534;-82
2021/07/28 03:53:45;;;;;;;17.25;11.88;;;16.60;99.90;;;;;;5023200;28;20041;-82
2021/07/28 03:56:11;;;;;;;15.50;11.50;;;16.60;99.90;;;;;;4979223;28;20029;-82
2021/07/28 03:58:37;;;;;;;13.57;10.73;;;16.60;99.90;;;;;;4982073;28;20026;-82
2021/07/28 04:01:21;;;;;;;16.17;11.65;;;16.50;99.90;;;;;;5002562;28;20097;-82
2021/07/28 04:03:47;;;;;;;16.77;11.05;;;16.60;99.90;;;;;;4992381;28;20022;-82
2021/07/28 04:06:14;;;;;;;16.55;11.80;;;16.60;99.90;;;;;;4991473;28;20018;-82
2021/07/28 04:08:39;;;;;;;14.05;11.18;;;16.50;99.90;;;;;;4982287;28;20076;-84
2021/07/28 04:11:05;;;;;;;19.50;12.45;;;16.60;99.90;;;;;;4978785;28;20030;-84
2021/07/28 04:13:32;;;;;;;17.45;13.25;;;16.50;99.90;;;;;;4997135;28;20085;-84
2021/07/28 04:15:58;;;;;;;18.40;12.27;;;16.50;99.90;;;;;;4979162;28;20027;-84
2021/07/28 04:18:24;;;;;;;17.08;11.95;;;16.50;99.90;;;;;;4992752;28;20072;-84
2021/07/28 04:20:49;;;;;;;15.10;11.15;;;16.50;99.90;;;;;;4984642;23;20054;-82
2021/07/28 04:23:15;;;;;;;17.15;12.63;;;16.60;99.90;;;;;;4965634;28;20040;-82
2021/07/28 04:25:41;;;;;;;16.33;11.90;;;16.60;99.90;;;;;;4997780;28;20026;-82
2021/07/28 04:28:06;;;;;;;16.08;11.95;;;16.50;99.90;;;;;;4997931;28;20042;-82
2021/07/28 04:30:34;;;;;;;18.08;12.45;;;16.50;99.90;;;;;;4981633;28;20026;-82
2021/07/28 04:33:00;;;;;;;17.38;11.27;;;16.50;99.90;;;;;;4981488;28;20129;-82
2021/07/28 04:35:25;;;;;;;16.33;11.95;;;16.50;99.90;;;;;;5013930;28;20018;-82
2021/07/28 04:37:51;;;;;;;14.85;11.45;;;16.60;99.90;;;;;;5013986;28;20053;-82
2021/07/28 04:40:17;;;;;;;17.40;12.52;;;16.60;99.90;;;;;;4997341;28;20026;-82
2021/07/28 04:42:42;;;;;;;17.23;12.75;;;16.60;99.90;;;;;;4981354;28;20053;-82
2021/07/28 04:45:08;;;;;;;17.80;12.35;;;16.60;99.90;;;;;;4981366;28;20058;-82
2021/07/28 04:47:34;;;;;;;19.05;13.13;;;16.60;99.90;;;;;;4981164;28;20686;-82
2021/07/28 04:50:00;;;;;;;18.60;12.77;;;16.60;99.90;;;;;;4965271;28;20022;-82
2021/07/28 04:52:26;;;;;;;17.25;13.60;;;16.70;99.90;;;;;;4980654;28;20022;-82
2021/07/28 04:54:52;;;;;;;18.05;12.15;;;16.60;99.90;;;;;;4981084;28;20022;-82
2021/07/28 04:57:19;;;;;;;20.00;13.10;;;16.70;99.90;;;;;;4997168;28;20030;-82
2021/07/28 04:59:45;;;;;;;20.60;14.20;;;16.70;99.90;;;;;;4997293;28;20032;-82
2021/07/28 05:02:11;;;;;;;19.83;14.32;;;16.70;99.90;;;;;;4997256;28;20026;-82
2021/07/28 05:04:36;;;;;;;18.40;13.25;;;16.70;99.90;;;;;;5014718;28;20133;-82
2021/07/28 05:07:02;;;;;;;17.67;13.40;;;16.70;99.90;;;;;;5014734;28;20026;-82
2021/07/28 05:09:28;;;;;;;21.38;14.55;;;16.70;99.90;;;;;;4997003;28;20022;-82
2021/07/28 05:11:54;;;;;;;18.95;13.85;;;16.70;99.90;;;;;;4983232;28;20045;-82
2021/07/28 05:14:19;;;;;;;21.42;14.50;;;16.80;99.90;;;;;;4980773;28;20032;-82
2021/07/28 05:16:45;;;;;;;20.55;14.73;;;16.80;99.90;;;;;;4980687;28;20351;-82
2021/07/28 05:19:10;;;;;;;18.73;14.07;;;16.70;99.90;;;;;;5013311;28;20467;-82
2021/07/28 05:21:36;;;;;;;24.88;15.35;;;16.70;99.90;;;;;;4980326;28;20053;-82
2021/07/28 05:24:02;;;;;;;21.75;14.55;;;16.80;99.90;;;;;;4996853;28;20109;-82
2021/07/28 05:26:28;;;;;;;21.92;14.95;;;16.80;99.90;;;;;;5007155;28;20030;-82
2021/07/28 05:28:54;;;;;;;21.05;15.15;;;16.80;99.90;;;;;;4980863;28;20141;-82
2021/07/28 05:31:20;;;;;;;19.40;14.63;;;16.80;99.90;;;;;;4980546;28;20111;-84
2021/07/28 05:33:45;;;;;;;19.48;14.57;;;16.80;99.90;;;;;;4993942;28;20077;-83
2021/07/28 05:36:11;;;;;;;19.10;14.43;;;16.80;99.90;;;;;;4961426;28;20444;-83
2021/07/28 05:38:37;;;;;;;20.50;15.13;;;16.80;99.90;;;;;;4991206;28;20101;-84
2021/07/28 05:41:03;;;;;;;18.63;13.63;;;16.80;99.90;;;;;;5002918;28;20100;-84
2021/07/28 05:43:29;;;;;;;20.52;15.50;;;16.90;99.90;;;;;;5029619;28;20030;-84
2021/07/28 05:45:55;;;;;;;19.02;15.23;;;16.90;99.90;;;;;;4996557;28;20088;-84
2021/07/28 05:48:20;;;;;;;20.15;15.13;;;16.90;99.90;;;;;;4982316;28;20068;-84
2021/07/28 05:50:46;;;;;;;21.73;14.60;;;16.90;99.90;;;;;;5005112;28;20030;-84
2021/07/28 05:53:12;;;;;;;18.13;13.55;;;17.00;99.90;;;;;;4997011;28;20029;-84
2021/07/28 05:55:38;;;;;;;20.40;14.65;;;17.00;99.90;;;;;;4980371;28;20537;-84
2021/07/28 05:58:03;;;;;;;21.45;16.63;;;17.00;99.90;;;;;;4992171;28;20029;-84
2021/07/28 06:00:29;;;;;;;22.42;16.20;;;17.00;99.90;;;;;;5000525;28;20026;-84
2021/07/28 06:02:55;;;;;;;22.40;15.55;;;17.00;99.90;;;;;;5002120;28;20048;-83
2021/07/28 06:05:21;;;;;;;21.67;15.80;;;17.10;99.90;;;;;;4995778;28;20045;-84
2021/07/28 06:07:46;;;;;;;23.27;16.42;;;17.10;99.90;;;;;;4979270;28;20030;-84
2021/07/28 06:10:14;;;;;;;22.17;16.70;;;17.10;99.90;;;;;;4980928;28;20026;-84
2021/07/28 06:12:40;;;;;;;24.48;17.27;;;17.10;99.90;;;;;;5003074;28;20058;-84
2021/07/28 06:15:06;;;;;;;22.98;16.95;;;17.10;99.90;;;;;;4979317;28;20069;-84
2021/07/28 06:17:32;;;;;;;22.10;16.10;;;17.20;99.90;;;;;;4960837;28;20050;-84
2021/07/28 06:19:57;;;;;;;22.95;16.60;;;17.20;99.90;;;;;;4978126;28;20026;-84
2021/07/28 06:22:23;;;;;;;23.90;17.42;;;17.20;99.90;;;;;;5007596;28;20058;-84
2021/07/28 06:24:50;;;;;;;22.98;17.00;;;17.30;99.90;;;;;;5009429;28;20125;-84
2021/07/28 06:27:16;;;;;;;24.38;17.67;;;17.30;99.90;;;;;;4992470;28;20125;-84
2021/07/28 06:29:42;;;;;;;26.00;17.92;;;17.30;99.90;;;;;;4996086;28;20022;-84
2021/07/28 06:32:07;;;;;;;20.85;16.73;;;17.30;99.90;;;;;;4994265;28;20423;-84
2021/07/28 06:34:33;;;;;;;29.38;18.67;;;17.40;99.90;;;;;;5012138;28;20097;-84
2021/07/28 06:36:59;;;;;;;23.77;17.40;;;17.40;99.90;;;;;;4978870;28;20037;-84
2021/07/28 06:39:26;;;;;;;23.80;18.77;;;17.50;99.90;;;;;;4980123;28;20030;-84
2021/07/28 06:41:51;;;;;;;24.05;19.00;;;17.50;99.90;;;;;;4995523;28;20048;-84
2021/07/28 06:44:32;;;;;;;23.30;18.67;;;17.50;99.90;;;;;;4995858;28;20058;-85
2021/07/28 06:46:58;;;;;;;;;;;17.50;99.90;;;;;;5004940;28;20117;-89
2021/07/28 06:49:24;;;;;;;25.90;19.48;;;17.60;99.90;;;;;;5014298;28;19945;-88
2021/07/28 06:51:54;;;;;;;26.25;19.48;;;17.60;99.90;;;;;;4996711;28;20026;-87
2021/07/28 06:57:11;;;;;;;23.23;19.08;;;17.60;99.90;;;;;;4972624;28;20119;-83
2021/07/28 06:59:37;;;;;;;21.80;18.33;;;17.60;99.90;;;;;;4939057;28;20162;-83
2021/07/28 07:02:03;;;;;;;22.88;18.60;;;17.60;99.90;;;;;;4972000;28;20070;-84
2021/07/28 07:04:29;;;;;;;20.58;17.02;;;17.60;99.90;;;;;;4953097;28;20069;-83
2021/07/28 07:06:54;;;;;;;21.52;17.50;;;17.70;99.90;;;;;;4972859;28;20034;-84
2021/07/28 07:09:20;;;;;;;20.80;17.13;;;17.70;99.90;;;;;;4947979;28;20049;-85
2021/07/28 07:11:46;;;;;;;20.90;17.05;;;17.70;99.90;;;;;;4940734;28;20115;-85
2021/07/28 07:14:11;;;;;;;19.88;15.48;;;17.70;99.90;;;;;;4972595;28;20046;-83
2021/07/28 07:16:37;;;;;;;20.75;16.13;;;17.80;99.90;;;;;;4975429;28;20030;-84
2021/07/28 07:19:09;;;;;;;19.55;15.98;;;17.80;99.90;;;;;;4992212;28;20023;-83
2021/07/28 07:21:34;;;;;;;20.00;16.33;;;17.80;99.90;;;;;;5019088;28;20112;-83
2021/07/28 07:24:00;;;;;;;20.60;16.08;;;17.80;99.90;;;;;;5022540;28;20053;-84
2021/07/28 07:26:26;;;;;;;18.05;14.95;;;17.90;99.90;;;;;;5002239;28;20013;-84
2021/07/28 07:28:51;;;;;;;19.75;15.18;;;17.90;99.90;;;;;;5012031;28;20033;-84
2021/07/28 07:31:17;;;;;;;18.75;13.02;;;17.90;99.90;;;;;;5004058;28;20037;-83
2021/07/28 07:33:43;;;;;;;18.25;14.13;;;17.90;99.90;;;;;;4987740;28;20021;-83
2021/07/28 07:36:11;;;;;;;17.85;14.57;;;17.90;99.90;;;;;;4993853;28;20037;-83
2021/07/28 07:38:37;;;;;;;19.13;13.40;;;17.90;99.90;;;;;;5020136;28;20045;-84
2021/07/28 07:41:04;;;;;;;19.00;12.55;;;17.90;99.90;;;;;;5019337;28;20025;-83
2021/07/28 07:43:30;;;;;;;16.33;11.55;;;17.90;99.90;;;;;;5028433;28;20078;-84
2021/07/28 07:45:56;;;;;;;14.07;10.25;;;17.90;99.90;;;;;;5019597;28;20012;-84
2021/07/28 07:48:23;;;;;;;14.55;10.43;;;17.90;99.90;;;;;;4990302;28;20034;-84
2021/07/28 07:50:49;;;;;;;13.38;9.70;;;17.90;99.90;;;;;;4996475;28;20121;-84
2021/07/28 07:53:14;;;;;;;16.67;10.32;;;17.90;99.90;;;;;;4995011;28;20062;-84
2021/07/28 07:55:40;;;;;;;13.18;9.35;;;17.90;99.90;;;;;;4974382;28;20049;-84
2021/07/28 07:58:05;;;;;;;11.63;8.25;;;18.00;99.90;;;;;;5017626;28;20077;-81
2021/07/28 08:00:31;;;;;;;16.25;10.32;;;18.00;99.90;;;;;;5005647;28;20018;-84
2021/07/28 08:02:57;;;;;;;11.07;8.35;;;18.00;99.90;;;;;;5001437;28;20022;-84
2021/07/28 08:05:22;;;;;;;12.90;8.43;;;18.10;99.90;;;;;;5006422;28;20030;-84
2021/07/28 08:07:51;;;;;;;11.52;7.90;;;18.10;99.90;;;;;;5010270;28;20037;-83
2021/07/28 08:10:19;;;;;;;12.43;7.25;;;18.20;99.90;;;;;;5002996;28;20089;-83
2021/07/28 08:12:45;;;;;;;10.52;7.32;;;18.20;99.90;;;;;;5024172;28;20484;-83
2021/07/28 08:15:11;;;;;;;10.80;7.50;;;18.30;99.90;;;;;;4990746;28;20025;-83
2021/07/28 08:17:37;;;;;;;14.57;7.07;;;18.30;99.90;;;;;;5021528;28;20022;-83
2021/07/28 08:20:04;;;;;;;12.48;7.43;;;18.40;99.90;;;;;;5005628;28;20018;-83
2021/07/28 08:22:30;;;;;;;9.15;6.50;;;18.40;99.90;;;;;;5011141;28;20054;-84
2021/07/28 08:24:56;;;;;;;12.05;6.10;;;18.40;99.90;;;;;;5002529;28;20034;-85
2021/07/28 08:27:23;;;;;;;9.73;5.43;;;18.40;99.90;;;;;;5004274;28;20472;-83
2021/07/28 08:29:49;;;;;;;9.43;5.43;;;18.40;99.90;;;;;;5006394;28;20033;-83
2021/07/28 08:32:15;;;;;;;8.82;6.10;;;18.50;99.90;;;;;;5005674;28;20460;-84
2021/07/28 08:34:40;;;;;;;10.95;6.35;;;18.50;99.90;;;;;;4991036;28;20033;-83
2021/07/28 08:37:06;;;;;;;9.15;6.15;;;18.60;99.50;;;;;;4970997;28;20442;-83
2021/07/28 08:39:31;;;;;;;11.57;5.93;;;18.60;99.90;;;;;;5014005;28;20018;-83
2021/07/28 08:42:05;;;;;;;8.65;5.80;;;18.70;99.80;;;;;;5006127;28;20029;-83
2021/07/28 08:44:35;;;;;;;9.80;5.50;;;18.70;99.30;;;;;;5024501;28;20022;-84
2021/07/28 08:47:01;;;;;;;8.47;5.30;;;18.70;99.70;;;;;;4997573;28;20101;-84
2021/07/28 08:49:27;;;;;;;7.85;5.25;;;18.80;99.60;;;;;;5000187;28;20579;-84
2021/07/28 08:51:54;;;;;;;9.52;5.55;;;18.70;99.30;;;;;;5034054;28;20479;-84
2021/07/28 08:54:20;;;;;;;8.02;5.72;;;18.80;99.20;;;;;;5035682;28;20088;-84
2021/07/28 08:56:47;;;;;;;8.10;5.30;;;18.80;98.30;;;;;;5016889;28;20033;-84
2021/07/28 08:59:30;;;;;;;6.75;4.63;;;18.90;98.10;;;;;;5011948;28;20033;-84
2021/07/28 09:01:57;;;;;;;8.57;4.32;;;19.00;97.70;;;;;;5008379;28;20029;-84
2021/07/28 09:04:24;;;;;;;6.60;4.30;;;19.00;97.10;;;;;;5044064;28;20022;-84
2021/07/28 09:06:50;;;;;;;8.35;4.10;;;19.10;97.30;;;;;;5019227;28;20107;-83
2021/07/28 09:09:15;;;;;;;7.13;3.78;;;19.10;96.50;;;;;;4993796;28;20026;-83
2021/07/28 09:11:59;;;;;;;9.15;3.92;;;19.20;96.90;;;;;;4999959;28;20027;-83
2021/07/28 09:14:38;;;;;;;9.00;4.03;;;19.30;96.60;;;;;;5012252;28;20033;-83
2021/07/28 09:17:19;;;;;;;5.78;3.90;;;19.40;95.80;;;;;;5022968;28;20034;-83
2021/07/28 09:19:49;;;;;;;14.32;4.18;;;19.50;96.30;;;;;;5026863;28;20538;-83
2021/07/28 09:22:20;;;;;;;9.15;4.15;;;19.50;96.00;;;;;;4992972;28;20049;-84
2021/07/28 09:25:06;;;;;;;;;;;19.60;95.80;;;;;;5001505;28;20090;-85
2021/07/28 09:27:49;;;;;;;7.55;3.60;;;19.60;94.80;;;;;;5008572;28;19905;-84
2021/07/28 09:30:33;;;;;;;8.52;3.65;;;19.60;96.20;;;;;;5005579;28;20146;-84
2021/07/28 09:33:07;;;;;;;7.78;3.10;;;19.60;95.20;;;;;;5001220;28;20038;-83
2021/07/28 09:35:54;;;;;;;5.50;3.42;;;19.70;96.80;;;;;;4996914;28;20054;-83
2021/07/28 09:38:31;;;;;;;5.80;3.33;;;19.70;95.80;;;;;;4999090;28;20029;-83
2021/07/28 09:41:20;;;;;;;7.82;3.20;;;19.70;96.30;;;;;;4988563;28;20031;-84
2021/07/28 09:44:01;;;;;;;7.68;3.35;;;19.80;94.50;;;;;;4994992;28;20026;-84
2021/07/28 09:46:35;;;;;;;5.60;3.17;;;19.80;95.70;;;;;;5011709;28;20034;-84
2021/07/28 09:49:09;;;;;;;6.18;3.28;;;19.90;95.70;;;;;;5009221;28;20025;-84
2021/07/28 09:51:37;;;;;;;5.80;3.08;;;20.00;95.30;;;;;;5022878;28;20037;-83
2021/07/28 09:54:11;;;;;;;6.25;2.95;;;20.00;95.70;;;;;;5004692;28;20034;-84
2021/07/28 09:56:43;;;;;;;6.05;3.00;;;20.10;94.90;;;;;;5006823;28;20536;-84
2021/07/28 09:59:09;;;;;;;4.70;3.10;;;20.20;94.60;;;;;;5006803;28;20468;-84
2021/07/28 10:01:35;;;;;;;5.68;2.80;;;20.20;94.60;;;;;;5004215;28;20052;-83
2021/07/28 10:04:03;;;;;;;4.32;2.75;;;20.20;93.80;;;;;;4999713;28;20061;-83
2021/07/28 10:06:38;;;;;;;6.22;3.10;;;20.20;95.20;;;;;;5017454;28;20026;-84
2021/07/28 10:09:09;;;;;;;5.38;3.10;;;20.30;95.10;;;;;;5017858;28;20377;-83
2021/07/28 10:11:40;;;;;;;5.50;2.92;;;20.30;95.30;;;;;;5000909;28;20030;-83
2021/07/28 10:14:08;;;;;;;5.82;2.60;;;20.40;95.50;;;;;;4974948;28;20030;-83
2021/07/28 10:16:34;;;;;;;5.63;2.50;;;20.50;93.60;;;;;;4986458;28;20037;-83
2021/07/28 10:19:03;;;;;;;6.18;2.58;;;20.50;92.00;;;;;;5001620;28;20018;-83
2021/07/28 10:21:32;;;;;;;6.07;2.53;;;20.60;93.30;;;;;;4999192;23;20061;-87
2021/07/28 10:23:59;;;;;;;4.70;2.63;;;20.70;94.20;;;;;;4999940;28;20041;-84
2021/07/28 10:26:25;;;;;;;5.20;2.65;;;20.80;93.30;;;;;;5005516;28;20026;-85
2021/07/28 10:28:51;;;;;;;7.60;2.90;;;20.80;92.00;;;;;;4995397;28;20494;-85
2021/07/28 10:31:18;;;;;;;5.65;2.95;;;20.80;92.20;;;;;;4995416;28;20129;-84
2021/07/28 10:33:45;;;;;;;4.03;2.30;;;20.70;91.80;;;;;;4976327;28;20033;-87
2021/07/28 10:36:11;;;;;;;7.97;2.17;;;20.70;93.30;;;;;;4969930;28;20526;-86
2021/07/28 10:38:51;;;;;;;4.30;2.50;;;20.70;92.30;;;;;;4979903;28;20018;-87
2021/07/28 10:41:36;;;;;;;5.40;2.53;;;20.80;92.90;;;;;;4982572;28;20040;-86
2021/07/28 10:44:52;;;;;;;4.53;2.63;;;20.80;93.60;;;;;;5013022;28;20356;-84
2021/07/28 10:47:19;;;;;;;7.65;2.47;;;20.90;90.90;;;;;;4976265;28;20038;-85
2021/07/28 10:49:47;;;;;;;4.40;2.03;;;21.00;90.80;;;;;;4979583;28;20022;-89
2021/07/28 10:52:49;;;;;;;8.52;2.60;;;21.10;91.20;;;;;;4979155;28;20534;-86
2021/07/28 10:55:32;;;;;;;7.10;2.95;;;21.10;90.40;;;;;;4996155;28;20529;-89
2021/07/28 10:58:07;;;;;;;4.43;2.30;;;21.00;91.20;;;;;;4996646;28;20387;-87
2021/07/28 11:00:38;;;;;;;7.53;2.95;;;20.90;90.20;;;;;;4995793;28;20364;-84
2021/07/28 11:03:20;;;;;;;4.95;2.20;;;20.90;90.00;;;;;;4989434;28;20070;-87
2021/07/28 11:05:50;;;;;;;5.32;2.58;;;21.00;92.00;;;;;;4975296;28;20495;-87
2021/07/28 11:08:20;;;;;;;4.97;2.08;;;21.10;92.20;;;;;;4982744;28;20030;-85
2021/07/28 11:10:45;;;;;;;4.97;2.22;;;21.20;91.80;;;;;;5013115;28;20022;-87
2021/07/28 11:13:16;;;;;;;6.25;2.88;;;21.20;89.50;;;;;;5016068;28;20110;-85
2021/07/28 11:15:57;;;;;;;3.88;2.25;;;21.20;90.50;;;;;;4995555;28;20030;-85
2021/07/28 11:18:32;;;;;;;;;;;21.20;91.80;;;;;;4995050;28;20055;-86
2021/07/28 11:21:26;;;;;;;4.38;2.35;;;21.30;92.00;;;;;;4994964;28;19921;-85
2021/07/28 11:27:34;;;;;;;4.22;2.25;;;21.60;89.50;;;;;;5007319;28;20076;-86
2021/07/28 11:30:13;;;;;;;6.32;2.20;;;21.60;88.60;;;;;;5009248;28;20410;-85
2021/07/28 11:32:39;;;;;;;5.88;2.20;;;21.70;90.80;;;;;;4987373;28;20108;-85
2021/07/28 11:35:06;;;;;;;6.07;1.83;;;21.80;90.00;;;;;;4987063;28;20395;-84
2021/07/28 11:37:32;;;;;;;6.32;2.30;;;21.80;84.10;;;;;;4994065;28;20045;-85
2021/07/28 11:40:01;;;;;;;5.00;2.75;;;21.70;87.50;;;;;;5002681;28;20022;-84
2021/07/28 11:42:28;;;;;;;6.28;2.50;;;21.60;88.90;;;;;;4971947;28;20030;-85
2021/07/28 11:44:54;;;;;;;6.30;2.28;;;21.60;88.70;;;;;;5006564;28;20036;-85
2021/07/28 11:47:28;;;;;;;5.85;2.22;;;21.60;89.20;;;;;;4990065;28;20519;-85
2021/07/28 11:50:05;;;;;;;9.43;2.25;;;21.60;90.10;;;;;;5000915;28;20065;-86
2021/07/28 11:52:36;;;;;;;5.35;2.10;;;21.60;86.60;;;;;;5012308;28;20025;-85
2021/07/28 11:55:21;;;;;;;5.43;1.90;;;21.60;87.30;;;;;;4974503;28;20519;-85
2021/07/28 11:57:48;;;;;;;5.35;2.13;;;21.50;85.70;;;;;;4994281;28;20018;-85
2021/07/28 12:00:30;;;;;;;5.97;2.40;;;21.50;84.50;;;;;;4994899;28;20395;-85
2021/07/28 12:03:23;;;;;;;3.85;1.90;;;21.50;87.60;;;;;;4985074;28;20108;-85
2021/07/28 12:05:58;;;;;;;5.03;1.90;;;21.50;83.10;;;;;;4998305;28;20084;-85
2021/07/28 12:08:35;;;;;;;4.38;2.17;;;21.50;86.70;;;;;;4998562;28;20034;-86
2021/07/28 12:11:02;;;;;;;4.18;2.05;;;21.60;87.70;;;;;;4985136;28;20041;-85
2021/07/28 12:13:42;;;;;;;3.40;2.10;;;21.60;85.70;;;;;;4992875;28;20494;-86
2021/07/28 12:16:07;;;;;;;5.73;2.30;;;21.70;89.00;;;;;;5012324;28;20053;-85
2021/07/28 12:18:47;;;;;;;4.05;2.00;;;21.70;86.20;;;;;;4982540;28;20331;-85
2021/07/28 12:21:14;;;;;;;3.45;1.90;;;21.70;88.60;;;;;;5000756;28;20107;-81
2021/07/28 12:23:53;;;;;;;5.63;2.20;;;21.70;89.00;;;;;;5026618;28;20430;-81
2021/07/28 12:26:45;;;;;;;3.95;1.80;;;21.70;85.40;;;;;;4997758;28;20107;-81
2021/07/28 12:29:10;;;;;;;4.65;1.80;;;21.70;86.50;;;;;;4997845;28;20087;-81
2021/07/28 12:31:36;;;;;;;4.80;2.00;;;21.70;87.80;;;;;;4981058;28;20124;-81
2021/07/28 12:34:21;;;;;;;3.92;1.90;;;21.70;86.80;;;;;;5007295;28;20061;-81
2021/07/28 12:36:46;;;;;;;4.63;2.00;;;21.80;88.20;;;;;;5016533;28;20021;-81
2021/07/28 12:39:12;;;;;;;7.22;2.20;;;21.80;88.30;;;;;;4981325;28;20096;-81
2021/07/28 12:41:38;;;;;;;3.60;1.90;;;21.80;88.60;;;;;;4965477;28;20103;-81
2021/07/28 12:44:04;;;;;;;6.82;2.30;;;21.80;89.00;;;;;;4977970;28;20538;-81
2021/07/28 12:46:29;;;;;;;6.07;2.00;;;21.80;87.20;;;;;;4992509;28;20041;-81
2021/07/28 12:48:55;;;;;;;5.68;2.17;;;21.80;86.70;;;;;;5017317;28;20029;-81